sensor_id;sensor_type;location;lat;lon;timestamp;P1;durP1;ratioP1;P2;durP2;ratioP2
75289;SDS011;63883;48.996;20.804;2023-07-31T00:00:06;4.00;;;2.83;;
75289;SDS011;63883;48.996;20.804;2023-07-31T00:02:54;2.92;;;2.50;;
75289;SDS011;63883;48.996;20.804;2023-07-31T00:05:20;3.90;;;2.72;;
75289;SDS011;63883;48.996;20.804;2023-07-31T00:07:46;4.97;;;2.70;;
75289;SDS011;63883;48.996;20.804;2023-07-31T00:10:11;5.45;;;2.72;;
75289;SDS011;63883;48.996;20.804;2023-07-31T00:12:38;4.95;;;2.72;;
75289;SDS011;63883;48.996;20.804;2023-07-31T00:15:06;2.97;;;2.58;;
75289;SDS011;63883;48.996;20.804;2023-07-31T00:17:32;3.80;;;2.65;;
75289;SDS011;63883;48.996;20.804;2023-07-31T00:19:58;3.60;;;2.58;;
75289;SDS011;63883;48.996;20.804;2023-07-31T00:22:24;3.97;;;2.70;;
75289;SDS011;63883;48.996;20.804;2023-07-31T00:24:49;3.85;;;2.67;;
75289;SDS011;63883;48.996;20.804;2023-07-31T00:27:15;5.05;;;3.13;;
75289;SDS011;63883;48.996;20.804;2023-07-31T00:29:41;4.90;;;2.72;;
75289;SDS011;63883;48.996;20.804;2023-07-31T00:32:07;5.93;;;3.10;;
75289;SDS011;63883;48.996;20.804;2023-07-31T00:34:32;4.20;;;2.80;;
75289;SDS011;63883;48.996;20.804;2023-07-31T00:36:58;3.75;;;2.80;;
75289;SDS011;63883;48.996;20.804;2023-07-31T00:39:24;7.03;;;3.13;;
75289;SDS011;63883;48.996;20.804;2023-07-31T00:41:50;4.22;;;2.92;;
75289;SDS011;63883;48.996;20.804;2023-07-31T00:44:15;6.15;;;3.05;;
75289;SDS011;63883;48.996;20.804;2023-07-31T00:46:41;5.88;;;2.97;;
75289;SDS011;63883;48.996;20.804;2023-07-31T00:49:07;4.13;;;2.83;;
75289;SDS011;63883;48.996;20.804;2023-07-31T00:51:33;4.45;;;3.08;;
75289;SDS011;63883;48.996;20.804;2023-07-31T00:53:58;5.10;;;2.65;;
75289;SDS011;63883;48.996;20.804;2023-07-31T00:56:25;4.63;;;2.58;;
75289;SDS011;63883;48.996;20.804;2023-07-31T00:58:52;7.00;;;2.80;;
75289;SDS011;63883;48.996;20.804;2023-07-31T01:01:18;7.10;;;2.90;;
75289;SDS011;63883;48.996;20.804;2023-07-31T01:03:44;5.85;;;2.80;;
75289;SDS011;63883;48.996;20.804;2023-07-31T01:08:43;8.88;;;2.60;;
75289;SDS011;63883;48.996;20.804;2023-07-31T01:11:22;4.47;;;2.85;;
75289;SDS011;63883;48.996;20.804;2023-07-31T01:13:52;9.70;;;2.70;;
75289;SDS011;63883;48.996;20.804;2023-07-31T01:16:19;5.90;;;2.63;;
75289;SDS011;63883;48.996;20.804;2023-07-31T01:18:45;5.32;;;2.90;;
75289;SDS011;63883;48.996;20.804;2023-07-31T01:26:58;4.60;;;2.95;;
75289;SDS011;63883;48.996;20.804;2023-07-31T01:30:01;4.82;;;2.72;;
75289;SDS011;63883;48.996;20.804;2023-07-31T01:32:36;3.83;;;2.70;;
75289;SDS011;63883;48.996;20.804;2023-07-31T01:35:05;5.03;;;2.90;;
75289;SDS011;63883;48.996;20.804;2023-07-31T01:37:32;4.60;;;2.63;;
75289;SDS011;63883;48.996;20.804;2023-07-31T01:39:57;5.35;;;2.88;;
75289;SDS011;63883;48.996;20.804;2023-07-31T01:42:23;4.97;;;2.80;;
75289;SDS011;63883;48.996;20.804;2023-07-31T01:44:49;4.50;;;3.10;;
75289;SDS011;63883;48.996;20.804;2023-07-31T01:47:14;6.85;;;3.10;;
75289;SDS011;63883;48.996;20.804;2023-07-31T01:49:40;4.72;;;3.20;;
75289;SDS011;63883;48.996;20.804;2023-07-31T01:52:06;4.80;;;2.95;;
75289;SDS011;63883;48.996;20.804;2023-07-31T01:54:31;6.70;;;3.30;;
75289;SDS011;63883;48.996;20.804;2023-07-31T01:56:58;5.05;;;3.13;;
75289;SDS011;63883;48.996;20.804;2023-07-31T01:59:24;5.00;;;2.92;;
75289;SDS011;63883;48.996;20.804;2023-07-31T02:01:50;5.45;;;2.90;;
75289;SDS011;63883;48.996;20.804;2023-07-31T02:04:15;6.03;;;3.22;;
75289;SDS011;63883;48.996;20.804;2023-07-31T02:06:41;4.97;;;3.25;;
75289;SDS011;63883;48.996;20.804;2023-07-31T02:09:09;6.30;;;3.20;;
75289;SDS011;63883;48.996;20.804;2023-07-31T02:11:35;5.75;;;3.33;;
75289;SDS011;63883;48.996;20.804;2023-07-31T02:14:00;6.45;;;3.30;;
75289;SDS011;63883;48.996;20.804;2023-07-31T02:16:26;9.13;;;3.90;;
75289;SDS011;63883;48.996;20.804;2023-07-31T02:18:52;12.05;;;3.85;;
75289;SDS011;63883;48.996;20.804;2023-07-31T02:21:17;13.73;;;4.30;;
75289;SDS011;63883;48.996;20.804;2023-07-31T02:23:43;8.10;;;3.60;;
75289;SDS011;63883;48.996;20.804;2023-07-31T02:26:09;13.93;;;4.90;;
75289;SDS011;63883;48.996;20.804;2023-07-31T02:28:34;10.50;;;4.50;;
75289;SDS011;63883;48.996;20.804;2023-07-31T02:31:00;9.00;;;4.30;;
75289;SDS011;63883;48.996;20.804;2023-07-31T02:33:26;11.63;;;3.95;;
75289;SDS011;63883;48.996;20.804;2023-07-31T02:35:51;13.57;;;4.63;;
75289;SDS011;63883;48.996;20.804;2023-07-31T02:38:17;20.38;;;5.07;;
75289;SDS011;63883;48.996;20.804;2023-07-31T02:40:43;19.20;;;4.75;;
75289;SDS011;63883;48.996;20.804;2023-07-31T02:43:09;8.75;;;4.32;;
75289;SDS011;63883;48.996;20.804;2023-07-31T02:45:35;18.90;;;4.70;;
75289;SDS011;63883;48.996;20.804;2023-07-31T02:48:01;7.38;;;4.20;;
75289;SDS011;63883;48.996;20.804;2023-07-31T02:50:26;9.18;;;4.68;;
75289;SDS011;63883;48.996;20.804;2023-07-31T02:52:55;26.13;;;5.05;;
75289;SDS011;63883;48.996;20.804;2023-07-31T02:55:20;10.90;;;4.50;;
75289;SDS011;63883;48.996;20.804;2023-07-31T02:57:46;10.10;;;4.45;;
75289;SDS011;63883;48.996;20.804;2023-07-31T03:00:12;14.45;;;4.78;;
75289;SDS011;63883;48.996;20.804;2023-07-31T03:02:38;10.38;;;4.63;;
75289;SDS011;63883;48.996;20.804;2023-07-31T03:05:04;8.32;;;4.40;;
75289;SDS011;63883;48.996;20.804;2023-07-31T03:07:30;11.98;;;4.80;;
75289;SDS011;63883;48.996;20.804;2023-07-31T03:09:56;10.77;;;4.38;;
75289;SDS011;63883;48.996;20.804;2023-07-31T03:12:21;12.27;;;4.93;;
75289;SDS011;63883;48.996;20.804;2023-07-31T03:14:47;8.73;;;4.30;;
75289;SDS011;63883;48.996;20.804;2023-07-31T03:17:13;7.25;;;4.63;;
75289;SDS011;63883;48.996;20.804;2023-07-31T03:19:39;7.32;;;4.40;;
75289;SDS011;63883;48.996;20.804;2023-07-31T03:22:04;6.22;;;4.05;;
75289;SDS011;63883;48.996;20.804;2023-07-31T03:24:30;11.25;;;4.30;;
75289;SDS011;63883;48.996;20.804;2023-07-31T03:26:56;7.13;;;4.60;;
75289;SDS011;63883;48.996;20.804;2023-07-31T03:29:22;11.30;;;4.40;;
75289;SDS011;63883;48.996;20.804;2023-07-31T03:31:47;8.85;;;4.30;;
75289;SDS011;63883;48.996;20.804;2023-07-31T03:34:13;9.10;;;3.80;;
75289;SDS011;63883;48.996;20.804;2023-07-31T03:36:39;8.70;;;4.50;;
75289;SDS011;63883;48.996;20.804;2023-07-31T03:39:04;7.20;;;4.35;;
75289;SDS011;63883;48.996;20.804;2023-07-31T03:41:30;8.73;;;4.55;;
75289;SDS011;63883;48.996;20.804;2023-07-31T03:43:56;7.30;;;4.95;;
75289;SDS011;63883;48.996;20.804;2023-07-31T03:46:22;8.18;;;4.97;;
75289;SDS011;63883;48.996;20.804;2023-07-31T03:48:48;6.85;;;4.43;;
75289;SDS011;63883;48.996;20.804;2023-07-31T03:51:14;9.35;;;4.82;;
75289;SDS011;63883;48.996;20.804;2023-07-31T03:53:40;9.27;;;4.57;;
75289;SDS011;63883;48.996;20.804;2023-07-31T03:56:05;9.95;;;4.20;;
75289;SDS011;63883;48.996;20.804;2023-07-31T03:58:31;6.90;;;3.97;;
75289;SDS011;63883;48.996;20.804;2023-07-31T04:00:57;8.45;;;4.03;;
75289;SDS011;63883;48.996;20.804;2023-07-31T04:03:22;6.25;;;3.92;;
75289;SDS011;63883;48.996;20.804;2023-07-31T04:05:48;7.18;;;4.35;;
75289;SDS011;63883;48.996;20.804;2023-07-31T04:08:14;7.57;;;4.22;;
75289;SDS011;63883;48.996;20.804;2023-07-31T04:10:39;5.10;;;3.65;;
75289;SDS011;63883;48.996;20.804;2023-07-31T04:13:05;7.55;;;4.45;;
75289;SDS011;63883;48.996;20.804;2023-07-31T04:15:31;8.93;;;3.78;;
75289;SDS011;63883;48.996;20.804;2023-07-31T04:17:56;13.00;;;4.47;;
75289;SDS011;63883;48.996;20.804;2023-07-31T04:20:22;8.07;;;4.25;;
75289;SDS011;63883;48.996;20.804;2023-07-31T04:22:48;7.47;;;4.57;;
75289;SDS011;63883;48.996;20.804;2023-07-31T04:25:14;6.95;;;4.25;;
75289;SDS011;63883;48.996;20.804;2023-07-31T04:27:40;6.90;;;4.18;;
75289;SDS011;63883;48.996;20.804;2023-07-31T04:30:06;12.45;;;5.10;;
75289;SDS011;63883;48.996;20.804;2023-07-31T04:32:32;7.63;;;4.10;;
75289;SDS011;63883;48.996;20.804;2023-07-31T04:34:57;5.53;;;3.72;;
75289;SDS011;63883;48.996;20.804;2023-07-31T04:37:23;6.88;;;4.50;;
75289;SDS011;63883;48.996;20.804;2023-07-31T04:39:49;7.25;;;4.63;;
75289;SDS011;63883;48.996;20.804;2023-07-31T04:42:14;7.22;;;4.40;;
75289;SDS011;63883;48.996;20.804;2023-07-31T04:44:40;8.70;;;4.72;;
75289;SDS011;63883;48.996;20.804;2023-07-31T04:47:05;8.80;;;4.80;;
75289;SDS011;63883;48.996;20.804;2023-07-31T04:49:32;8.93;;;4.43;;
75289;SDS011;63883;48.996;20.804;2023-07-31T04:51:57;7.18;;;4.30;;
75289;SDS011;63883;48.996;20.804;2023-07-31T04:54:23;7.50;;;4.55;;
75289;SDS011;63883;48.996;20.804;2023-07-31T04:56:49;7.05;;;4.38;;
75289;SDS011;63883;48.996;20.804;2023-07-31T04:59:15;7.80;;;4.43;;
75289;SDS011;63883;48.996;20.804;2023-07-31T05:01:40;7.50;;;4.22;;
75289;SDS011;63883;48.996;20.804;2023-07-31T05:04:06;8.68;;;4.60;;
75289;SDS011;63883;48.996;20.804;2023-07-31T05:06:32;8.43;;;4.15;;
75289;SDS011;63883;48.996;20.804;2023-07-31T05:08:58;8.45;;;4.38;;
75289;SDS011;63883;48.996;20.804;2023-07-31T05:11:23;9.65;;;4.47;;
75289;SDS011;63883;48.996;20.804;2023-07-31T05:13:49;6.57;;;4.25;;
75289;SDS011;63883;48.996;20.804;2023-07-31T05:16:15;6.97;;;4.47;;
75289;SDS011;63883;48.996;20.804;2023-07-31T05:18:40;7.50;;;4.47;;
75289;SDS011;63883;48.996;20.804;2023-07-31T05:21:06;7.55;;;4.35;;
75289;SDS011;63883;48.996;20.804;2023-07-31T05:23:32;8.35;;;4.70;;
75289;SDS011;63883;48.996;20.804;2023-07-31T05:26:07;6.88;;;4.57;;
75289;SDS011;63883;48.996;20.804;2023-07-31T05:28:35;8.45;;;4.57;;
75289;SDS011;63883;48.996;20.804;2023-07-31T05:31:01;8.38;;;4.88;;
75289;SDS011;63883;48.996;20.804;2023-07-31T05:33:28;5.43;;;4.25;;
75289;SDS011;63883;48.996;20.804;2023-07-31T05:35:53;8.07;;;4.88;;
75289;SDS011;63883;48.996;20.804;2023-07-31T05:38:19;7.13;;;4.50;;
75289;SDS011;63883;48.996;20.804;2023-07-31T05:40:45;8.00;;;4.50;;
75289;SDS011;63883;48.996;20.804;2023-07-31T05:43:11;6.75;;;4.55;;
75289;SDS011;63883;48.996;20.804;2023-07-31T05:45:36;6.65;;;4.03;;
75289;SDS011;63883;48.996;20.804;2023-07-31T05:48:02;5.93;;;4.20;;
75289;SDS011;63883;48.996;20.804;2023-07-31T05:50:28;5.75;;;4.20;;
75289;SDS011;63883;48.996;20.804;2023-07-31T05:52:55;6.40;;;4.10;;
75289;SDS011;63883;48.996;20.804;2023-07-31T05:55:20;5.63;;;4.38;;
75289;SDS011;63883;48.996;20.804;2023-07-31T05:57:46;5.78;;;4.18;;
75289;SDS011;63883;48.996;20.804;2023-07-31T06:00:12;5.50;;;4.25;;
75289;SDS011;63883;48.996;20.804;2023-07-31T06:02:39;5.63;;;4.10;;
75289;SDS011;63883;48.996;20.804;2023-07-31T06:05:05;6.53;;;4.72;;
75289;SDS011;63883;48.996;20.804;2023-07-31T06:07:34;6.45;;;4.13;;
75289;SDS011;63883;48.996;20.804;2023-07-31T06:09:59;7.75;;;4.00;;
75289;SDS011;63883;48.996;20.804;2023-07-31T06:12:34;6.25;;;4.30;;
75289;SDS011;63883;48.996;20.804;2023-07-31T06:15:02;7.53;;;4.03;;
75289;SDS011;63883;48.996;20.804;2023-07-31T06:17:29;4.88;;;4.00;;
75289;SDS011;63883;48.996;20.804;2023-07-31T06:19:55;5.90;;;4.03;;
75289;SDS011;63883;48.996;20.804;2023-07-31T06:22:22;5.95;;;4.22;;
75289;SDS011;63883;48.996;20.804;2023-07-31T06:24:47;4.20;;;3.65;;
75289;SDS011;63883;48.996;20.804;2023-07-31T06:27:13;5.78;;;3.80;;
75289;SDS011;63883;48.996;20.804;2023-07-31T06:29:39;4.97;;;3.72;;
75289;SDS011;63883;48.996;20.804;2023-07-31T06:32:04;6.28;;;3.45;;
75289;SDS011;63883;48.996;20.804;2023-07-31T06:34:30;5.00;;;3.50;;
75289;SDS011;63883;48.996;20.804;2023-07-31T06:36:56;5.97;;;3.67;;
75289;SDS011;63883;48.996;20.804;2023-07-31T06:39:22;3.88;;;3.47;;
75289;SDS011;63883;48.996;20.804;2023-07-31T06:41:48;5.10;;;3.70;;
75289;SDS011;63883;48.996;20.804;2023-07-31T06:44:14;4.57;;;3.65;;
75289;SDS011;63883;48.996;20.804;2023-07-31T06:46:39;3.95;;;3.20;;
75289;SDS011;63883;48.996;20.804;2023-07-31T06:49:05;4.18;;;3.10;;
75289;SDS011;63883;48.996;20.804;2023-07-31T06:51:31;5.90;;;3.47;;
75289;SDS011;63883;48.996;20.804;2023-07-31T06:53:57;6.63;;;3.53;;
75289;SDS011;63883;48.996;20.804;2023-07-31T06:56:23;4.45;;;3.90;;
75289;SDS011;63883;48.996;20.804;2023-07-31T06:58:49;4.65;;;3.30;;
75289;SDS011;63883;48.996;20.804;2023-07-31T07:01:15;6.30;;;3.80;;
75289;SDS011;63883;48.996;20.804;2023-07-31T07:03:40;4.75;;;3.50;;
75289;SDS011;63883;48.996;20.804;2023-07-31T07:06:06;4.05;;;3.55;;
75289;SDS011;63883;48.996;20.804;2023-07-31T07:08:32;4.15;;;3.35;;
75289;SDS011;63883;48.996;20.804;2023-07-31T07:10:58;5.13;;;3.40;;
75289;SDS011;63883;48.996;20.804;2023-07-31T07:13:23;3.97;;;3.45;;
75289;SDS011;63883;48.996;20.804;2023-07-31T07:15:49;3.53;;;3.08;;
75289;SDS011;63883;48.996;20.804;2023-07-31T07:18:15;3.95;;;3.50;;
75289;SDS011;63883;48.996;20.804;2023-07-31T07:20:51;4.10;;;3.60;;
75289;SDS011;63883;48.996;20.804;2023-07-31T07:23:17;3.60;;;3.25;;
75289;SDS011;63883;48.996;20.804;2023-07-31T07:25:44;3.92;;;3.47;;
75289;SDS011;63883;48.996;20.804;2023-07-31T07:28:11;4.70;;;3.60;;
75289;SDS011;63883;48.996;20.804;2023-07-31T07:30:37;3.70;;;3.30;;
75289;SDS011;63883;48.996;20.804;2023-07-31T07:33:02;3.67;;;3.30;;
75289;SDS011;63883;48.996;20.804;2023-07-31T07:35:28;3.92;;;3.53;;
75289;SDS011;63883;48.996;20.804;2023-07-31T07:37:54;3.70;;;3.40;;
75289;SDS011;63883;48.996;20.804;2023-07-31T07:40:20;3.45;;;3.08;;
75289;SDS011;63883;48.996;20.804;2023-07-31T07:42:46;4.97;;;3.35;;
75289;SDS011;63883;48.996;20.804;2023-07-31T07:45:12;3.20;;;2.90;;
75289;SDS011;63883;48.996;20.804;2023-07-31T07:47:40;5.07;;;3.25;;
75289;SDS011;63883;48.996;20.804;2023-07-31T07:50:06;4.15;;;3.15;;
75289;SDS011;63883;48.996;20.804;2023-07-31T07:52:32;3.30;;;2.92;;
75289;SDS011;63883;48.996;20.804;2023-07-31T07:54:58;4.32;;;3.22;;
75289;SDS011;63883;48.996;20.804;2023-07-31T07:57:23;3.53;;;3.10;;
75289;SDS011;63883;48.996;20.804;2023-07-31T07:59:49;3.45;;;2.80;;
75289;SDS011;63883;48.996;20.804;2023-07-31T08:02:15;3.13;;;2.83;;
75289;SDS011;63883;48.996;20.804;2023-07-31T08:04:41;3.92;;;3.00;;
75289;SDS011;63883;48.996;20.804;2023-07-31T08:07:06;3.05;;;2.75;;
75289;SDS011;63883;48.996;20.804;2023-07-31T08:09:32;3.38;;;3.03;;
75289;SDS011;63883;48.996;20.804;2023-07-31T08:11:57;3.15;;;2.75;;
75289;SDS011;63883;48.996;20.804;2023-07-31T08:14:27;3.25;;;2.95;;
75289;SDS011;63883;48.996;20.804;2023-07-31T08:16:53;3.28;;;2.80;;
75289;SDS011;63883;48.996;20.804;2023-07-31T08:19:19;3.13;;;2.83;;
75289;SDS011;63883;48.996;20.804;2023-07-31T08:21:44;3.17;;;2.88;;
75289;SDS011;63883;48.996;20.804;2023-07-31T08:24:10;3.70;;;2.70;;
75289;SDS011;63883;48.996;20.804;2023-07-31T08:26:36;2.95;;;2.70;;
75289;SDS011;63883;48.996;20.804;2023-07-31T08:29:02;4.25;;;2.78;;
75289;SDS011;63883;48.996;20.804;2023-07-31T08:31:27;3.42;;;3.13;;
75289;SDS011;63883;48.996;20.804;2023-07-31T08:33:55;3.92;;;2.78;;
75289;SDS011;63883;48.996;20.804;2023-07-31T08:36:21;4.45;;;3.00;;
75289;SDS011;63883;48.996;20.804;2023-07-31T08:38:47;5.03;;;2.90;;
75289;SDS011;63883;48.996;20.804;2023-07-31T08:41:12;3.10;;;2.80;;
75289;SDS011;63883;48.996;20.804;2023-07-31T08:43:43;3.35;;;3.00;;
75289;SDS011;63883;48.996;20.804;2023-07-31T08:46:10;2.83;;;2.63;;
75289;SDS011;63883;48.996;20.804;2023-07-31T08:48:37;3.20;;;2.90;;
75289;SDS011;63883;48.996;20.804;2023-07-31T08:51:06;3.45;;;2.90;;
75289;SDS011;63883;48.996;20.804;2023-07-31T08:53:32;3.08;;;2.88;;
75289;SDS011;63883;48.996;20.804;2023-07-31T08:55:58;3.42;;;3.10;;
75289;SDS011;63883;48.996;20.804;2023-07-31T08:58:24;3.92;;;3.00;;
75289;SDS011;63883;48.996;20.804;2023-07-31T09:00:51;3.30;;;2.80;;
75289;SDS011;63883;48.996;20.804;2023-07-31T09:03:18;3.13;;;2.83;;
75289;SDS011;63883;48.996;20.804;2023-07-31T09:05:44;3.55;;;2.60;;
75289;SDS011;63883;48.996;20.804;2023-07-31T09:10:44;3.90;;;2.63;;
75289;SDS011;63883;48.996;20.804;2023-07-31T09:13:15;5.18;;;2.95;;
75289;SDS011;63883;48.996;20.804;2023-07-31T09:15:45;3.65;;;3.22;;
75289;SDS011;63883;48.996;20.804;2023-07-31T09:18:11;3.10;;;2.55;;
75289;SDS011;63883;48.996;20.804;2023-07-31T09:23:09;2.45;;;2.25;;
75289;SDS011;63883;48.996;20.804;2023-07-31T09:25:36;2.67;;;2.30;;
75289;SDS011;63883;48.996;20.804;2023-07-31T09:28:04;10.70;;;7.15;;
75289;SDS011;63883;48.996;20.804;2023-07-31T09:30:49;20.27;;;13.98;;
75289;SDS011;63883;48.996;20.804;2023-07-31T09:33:17;6.68;;;5.22;;
75289;SDS011;63883;48.996;20.804;2023-07-31T09:35:44;3.15;;;2.85;;
75289;SDS011;63883;48.996;20.804;2023-07-31T09:38:11;3.30;;;3.00;;
75289;SDS011;63883;48.996;20.804;2023-07-31T09:40:39;2.03;;;1.92;;
75289;SDS011;63883;48.996;20.804;2023-07-31T09:43:07;2.50;;;2.20;;
75289;SDS011;63883;48.996;20.804;2023-07-31T09:45:35;2.15;;;2.00;;
75289;SDS011;63883;48.996;20.804;2023-07-31T09:48:09;3.30;;;2.30;;
75289;SDS011;63883;48.996;20.804;2023-07-31T09:50:37;2.10;;;2.00;;
75289;SDS011;63883;48.996;20.804;2023-07-31T09:53:05;1.90;;;1.80;;
75289;SDS011;63883;48.996;20.804;2023-07-31T09:55:32;2.30;;;2.10;;
75289;SDS011;63883;48.996;20.804;2023-07-31T09:57:58;1.98;;;1.85;;
75289;SDS011;63883;48.996;20.804;2023-07-31T10:00:24;1.80;;;1.70;;
75289;SDS011;63883;48.996;20.804;2023-07-31T10:02:53;1.98;;;1.88;;
75289;SDS011;63883;48.996;20.804;2023-07-31T10:05:21;3.05;;;1.90;;
75289;SDS011;63883;48.996;20.804;2023-07-31T10:07:56;2.00;;;1.90;;
75289;SDS011;63883;48.996;20.804;2023-07-31T10:10:22;2.10;;;2.00;;
75289;SDS011;63883;48.996;20.804;2023-07-31T10:12:49;2.00;;;1.90;;
75289;SDS011;63883;48.996;20.804;2023-07-31T10:15:15;2.20;;;2.03;;
75289;SDS011;63883;48.996;20.804;2023-07-31T10:17:42;2.00;;;1.90;;
75289;SDS011;63883;48.996;20.804;2023-07-31T10:20:08;2.03;;;1.92;;
75289;SDS011;63883;48.996;20.804;2023-07-31T10:22:35;1.88;;;1.70;;
75289;SDS011;63883;48.996;20.804;2023-07-31T10:25:01;1.90;;;1.80;;
75289;SDS011;63883;48.996;20.804;2023-07-31T10:27:28;2.42;;;2.22;;
75289;SDS011;63883;48.996;20.804;2023-07-31T10:29:54;2.63;;;2.42;;
75289;SDS011;63883;48.996;20.804;2023-07-31T10:32:21;2.05;;;1.95;;
75289;SDS011;63883;48.996;20.804;2023-07-31T10:34:49;2.00;;;1.90;;
75289;SDS011;63883;48.996;20.804;2023-07-31T10:37:27;2.83;;;1.80;;
75289;SDS011;63883;48.996;20.804;2023-07-31T10:39:59;1.80;;;1.70;;
75289;SDS011;63883;48.996;20.804;2023-07-31T10:42:36;1.85;;;1.75;;
75289;SDS011;63883;48.996;20.804;2023-07-31T10:45:08;2.25;;;2.05;;
75289;SDS011;63883;48.996;20.804;2023-07-31T10:47:38;3.70;;;3.30;;
75289;SDS011;63883;48.996;20.804;2023-07-31T10:50:10;3.15;;;2.00;;
75289;SDS011;63883;48.996;20.804;2023-07-31T10:52:37;1.98;;;1.88;;
75289;SDS011;63883;48.996;20.804;2023-07-31T10:57:50;2.05;;;1.95;;
75289;SDS011;63883;48.996;20.804;2023-07-31T11:00:20;2.92;;;2.40;;
75289;SDS011;63883;48.996;20.804;2023-07-31T11:02:56;2.00;;;1.90;;
75289;SDS011;63883;48.996;20.804;2023-07-31T11:05:23;1.90;;;1.80;;
75289;SDS011;63883;48.996;20.804;2023-07-31T11:08:14;2.30;;;2.10;;
75289;SDS011;63883;48.996;20.804;2023-07-31T11:10:44;2.15;;;2.00;;
75289;SDS011;63883;48.996;20.804;2023-07-31T11:13:12;2.63;;;2.10;;
75289;SDS011;63883;48.996;20.804;2023-07-31T11:15:38;2.20;;;2.10;;
75289;SDS011;63883;48.996;20.804;2023-07-31T11:18:05;3.47;;;2.63;;
75289;SDS011;63883;48.996;20.804;2023-07-31T11:20:34;2.17;;;1.98;;
75289;SDS011;63883;48.996;20.804;2023-07-31T11:23:01;2.10;;;2.00;;
75289;SDS011;63883;48.996;20.804;2023-07-31T11:25:37;2.20;;;2.05;;
75289;SDS011;63883;48.996;20.804;2023-07-31T11:28:10;3.75;;;3.05;;
75289;SDS011;63883;48.996;20.804;2023-07-31T11:30:40;2.92;;;2.22;;
75289;SDS011;63883;48.996;20.804;2023-07-31T11:33:07;2.10;;;2.00;;
75289;SDS011;63883;48.996;20.804;2023-07-31T11:35:34;2.38;;;2.28;;
75289;SDS011;63883;48.996;20.804;2023-07-31T11:38:02;1.83;;;1.73;;
75289;SDS011;63883;48.996;20.804;2023-07-31T11:40:28;2.40;;;2.20;;
75289;SDS011;63883;48.996;20.804;2023-07-31T11:42:58;2.35;;;2.20;;
75289;SDS011;63883;48.996;20.804;2023-07-31T11:45:29;2.20;;;2.10;;
75289;SDS011;63883;48.996;20.804;2023-07-31T11:47:55;2.17;;;2.08;;
75289;SDS011;63883;48.996;20.804;2023-07-31T11:50:22;2.13;;;1.92;;
75289;SDS011;63883;48.996;20.804;2023-07-31T11:52:52;2.22;;;2.00;;
75289;SDS011;63883;48.996;20.804;2023-07-31T11:55:21;2.13;;;2.00;;
75289;SDS011;63883;48.996;20.804;2023-07-31T11:57:47;2.70;;;2.50;;
75289;SDS011;63883;48.996;20.804;2023-07-31T12:00:14;1.95;;;1.85;;
75289;SDS011;63883;48.996;20.804;2023-07-31T12:02:40;1.92;;;1.83;;
75289;SDS011;63883;48.996;20.804;2023-07-31T12:05:10;1.77;;;1.67;;
75289;SDS011;63883;48.996;20.804;2023-07-31T12:07:50;1.90;;;1.80;;
75289;SDS011;63883;48.996;20.804;2023-07-31T12:10:29;1.80;;;1.70;;
75289;SDS011;63883;48.996;20.804;2023-07-31T12:12:58;2.53;;;2.00;;
75289;SDS011;63883;48.996;20.804;2023-07-31T12:15:32;2.20;;;2.00;;
75289;SDS011;63883;48.996;20.804;2023-07-31T12:23:17;2.13;;;1.92;;
75289;SDS011;63883;48.996;20.804;2023-07-31T12:25:59;2.03;;;1.92;;
75289;SDS011;63883;48.996;20.804;2023-07-31T12:28:29;1.90;;;1.80;;
75289;SDS011;63883;48.996;20.804;2023-07-31T12:30:59;2.13;;;2.00;;
75289;SDS011;63883;48.996;20.804;2023-07-31T12:33:32;1.80;;;1.70;;
75289;SDS011;63883;48.996;20.804;2023-07-31T12:38:29;2.10;;;2.00;;
75289;SDS011;63883;48.996;20.804;2023-07-31T12:40:55;2.47;;;2.20;;
75289;SDS011;63883;48.996;20.804;2023-07-31T12:43:21;2.50;;;2.13;;
75289;SDS011;63883;48.996;20.804;2023-07-31T12:45:46;2.60;;;2.40;;
75289;SDS011;63883;48.996;20.804;2023-07-31T12:48:13;2.42;;;2.22;;
75289;SDS011;63883;48.996;20.804;2023-07-31T12:50:39;2.67;;;2.30;;
75289;SDS011;63883;48.996;20.804;2023-07-31T12:53:05;2.22;;;2.13;;
75289;SDS011;63883;48.996;20.804;2023-07-31T12:55:31;3.30;;;2.40;;
75289;SDS011;63883;48.996;20.804;2023-07-31T12:58:00;2.47;;;2.28;;
75289;SDS011;63883;48.996;20.804;2023-07-31T13:00:26;3.55;;;2.60;;
75289;SDS011;63883;48.996;20.804;2023-07-31T13:02:52;2.70;;;2.50;;
75289;SDS011;63883;48.996;20.804;2023-07-31T13:05:18;2.58;;;2.38;;
75289;SDS011;63883;48.996;20.804;2023-07-31T13:07:47;2.83;;;2.53;;
75289;SDS011;63883;48.996;20.804;2023-07-31T13:10:13;3.00;;;2.70;;
75289;SDS011;63883;48.996;20.804;2023-07-31T13:12:39;3.10;;;2.60;;
75289;SDS011;63883;48.996;20.804;2023-07-31T13:15:05;2.72;;;2.53;;
75289;SDS011;63883;48.996;20.804;2023-07-31T13:17:32;2.72;;;2.53;;
75289;SDS011;63883;48.996;20.804;2023-07-31T13:19:58;3.60;;;2.70;;
75289;SDS011;63883;48.996;20.804;2023-07-31T13:22:25;2.63;;;2.42;;
75289;SDS011;63883;48.996;20.804;2023-07-31T13:24:50;4.47;;;2.85;;
75289;SDS011;63883;48.996;20.804;2023-07-31T13:27:16;2.25;;;2.10;;
75289;SDS011;63883;48.996;20.804;2023-07-31T13:29:44;2.63;;;2.40;;
75289;SDS011;63883;48.996;20.804;2023-07-31T13:32:10;2.65;;;2.45;;
75289;SDS011;63883;48.996;20.804;2023-07-31T13:34:36;2.40;;;2.20;;
75289;SDS011;63883;48.996;20.804;2023-07-31T13:37:02;2.50;;;2.30;;
75289;SDS011;63883;48.996;20.804;2023-07-31T13:39:27;2.38;;;2.20;;
75289;SDS011;63883;48.996;20.804;2023-07-31T13:41:53;2.30;;;2.10;;
75289;SDS011;63883;48.996;20.804;2023-07-31T13:44:20;2.03;;;1.92;;
75289;SDS011;63883;48.996;20.804;2023-07-31T13:46:45;2.30;;;2.10;;
75289;SDS011;63883;48.996;20.804;2023-07-31T13:49:11;2.45;;;2.25;;
75289;SDS011;63883;48.996;20.804;2023-07-31T13:51:37;2.25;;;2.13;;
75289;SDS011;63883;48.996;20.804;2023-07-31T13:54:04;2.67;;;2.47;;
75289;SDS011;63883;48.996;20.804;2023-07-31T13:56:31;3.08;;;2.47;;
75289;SDS011;63883;48.996;20.804;2023-07-31T13:58:57;4.22;;;2.58;;
75289;SDS011;63883;48.996;20.804;2023-07-31T14:01:23;2.75;;;2.40;;
75289;SDS011;63883;48.996;20.804;2023-07-31T14:03:49;2.70;;;2.50;;
75289;SDS011;63883;48.996;20.804;2023-07-31T14:06:15;2.58;;;2.42;;
75289;SDS011;63883;48.996;20.804;2023-07-31T14:08:40;2.50;;;2.30;;
75289;SDS011;63883;48.996;20.804;2023-07-31T14:11:06;2.95;;;2.33;;
75289;SDS011;63883;48.996;20.804;2023-07-31T14:13:32;3.00;;;2.33;;
75289;SDS011;63883;48.996;20.804;2023-07-31T14:15:58;2.53;;;2.33;;
75289;SDS011;63883;48.996;20.804;2023-07-31T14:18:23;2.58;;;2.38;;
75289;SDS011;63883;48.996;20.804;2023-07-31T14:20:49;2.63;;;2.33;;
75289;SDS011;63883;48.996;20.804;2023-07-31T14:23:14;3.45;;;2.13;;
75289;SDS011;63883;48.996;20.804;2023-07-31T14:25:41;2.45;;;2.25;;
75289;SDS011;63883;48.996;20.804;2023-07-31T14:28:06;2.92;;;2.20;;
75289;SDS011;63883;48.996;20.804;2023-07-31T14:30:32;2.28;;;2.08;;
75289;SDS011;63883;48.996;20.804;2023-07-31T14:32:58;2.40;;;2.20;;
75289;SDS011;63883;48.996;20.804;2023-07-31T14:35:26;2.50;;;2.30;;
75289;SDS011;63883;48.996;20.804;2023-07-31T14:37:51;2.40;;;2.20;;
75289;SDS011;63883;48.996;20.804;2023-07-31T14:40:17;2.65;;;2.42;;
75289;SDS011;63883;48.996;20.804;2023-07-31T14:42:43;2.75;;;2.55;;
75289;SDS011;63883;48.996;20.804;2023-07-31T14:45:09;3.08;;;2.88;;
75289;SDS011;63883;48.996;20.804;2023-07-31T14:47:35;3.10;;;2.72;;
75289;SDS011;63883;48.996;20.804;2023-07-31T14:50:02;2.90;;;2.70;;
75289;SDS011;63883;48.996;20.804;2023-07-31T14:52:28;2.90;;;2.60;;
75289;SDS011;63883;48.996;20.804;2023-07-31T14:54:54;3.40;;;2.92;;